sensor_id;sensor_type;location;lat;lon;timestamp;pressure;altitude;pressure_sealevel;temperature;humidity
20350;BME280;10332;50.208;18.988;2023-02-13T00:00:54;99972.94;;;4.65;96.00
20350;BME280;10332;50.208;18.988;2023-02-13T00:03:23;99971.97;;;4.72;95.93
20350;BME280;10332;50.208;18.988;2023-02-13T00:05:50;99972.88;;;4.71;95.77
20350;BME280;10332;50.208;18.988;2023-02-13T00:08:18;99978.97;;;4.66;95.99
20350;BME280;10332;50.208;18.988;2023-02-13T00:10:46;99983.34;;;4.62;96.49
20350;BME280;10332;50.208;18.988;2023-02-13T00:13:15;99976.47;;;4.61;96.59
20350;BME280;10332;50.208;18.988;2023-02-13T00:15:42;99979.06;;;4.58;96.52
20350;BME280;10332;50.208;18.988;2023-02-13T00:18:10;99977.38;;;4.59;96.66
20350;BME280;10332;50.208;18.988;2023-02-13T00:20:37;99973.19;;;4.47;97.28
20350;BME280;10332;50.208;18.988;2023-02-13T00:23:05;99977.34;;;4.60;97.25
20350;BME280;10332;50.208;18.988;2023-02-13T00:25:32;99978.97;;;4.66;96.93
20350;BME280;10332;50.208;18.988;2023-02-13T00:28:00;99987.53;;;4.71;96.84
20350;BME280;10332;50.208;18.988;2023-02-13T00:30:27;99981.53;;;4.67;96.77
20350;BME280;10332;50.208;18.988;2023-02-13T00:32:55;99972.94;;;4.65;96.99
20350;BME280;10332;50.208;18.988;2023-02-13T00:35:22;99974.63;;;4.69;97.35
20350;BME280;10332;50.208;18.988;2023-02-13T00:37:50;99971.94;;;4.74;97.38
20350;BME280;10332;50.208;18.988;2023-02-13T00:40:17;99975.50;;;4.68;97.52
20350;BME280;10332;50.208;18.988;2023-02-13T00:42:45;99987.44;;;4.78;97.15
20350;BME280;10332;50.208;18.988;2023-02-13T00:45:12;99975.19;;;4.90;96.95
20350;BME280;10332;50.208;18.988;2023-02-13T00:47:40;99973.31;;;4.99;96.24
20350;BME280;10332;50.208;18.988;2023-02-13T00:50:07;99963.81;;;5.00;96.30
20350;BME280;10332;50.208;18.988;2023-02-13T00:52:35;99971.56;;;5.00;96.04
20350;BME280;10332;50.208;18.988;2023-02-13T00:55:03;99968.94;;;5.03;96.28
20350;BME280;10332;50.208;18.988;2023-02-13T00:57:30;99966.38;;;5.01;96.15
20350;BME280;10332;50.208;18.988;2023-02-13T00:59:58;99968.84;;;5.09;96.11
20350;BME280;10332;50.208;18.988;2023-02-13T01:02:25;99961.91;;;5.11;95.95
20350;BME280;10332;50.208;18.988;2023-02-13T01:04:53;99969.56;;;5.19;95.43
20350;BME280;10332;50.208;18.988;2023-02-13T01:07:20;99964.53;;;5.09;95.71
20350;BME280;10332;50.208;18.988;2023-02-13T01:09:48;99957.63;;;5.08;96.13
20350;BME280;10332;50.208;18.988;2023-02-13T01:12:15;99959.31;;;5.12;96.02
20350;BME280;10332;50.208;18.988;2023-02-13T01:14:42;99962.59;;;5.21;95.76
20350;BME280;10332;50.208;18.988;2023-02-13T01:17:10;99966.91;;;5.23;95.56
20350;BME280;10332;50.208;18.988;2023-02-13T01:19:39;99959.97;;;5.25;95.43
20350;BME280;10332;50.208;18.988;2023-02-13T01:22:08;99960.88;;;5.23;95.65
20350;BME280;10332;50.208;18.988;2023-02-13T01:24:35;99957.59;;;5.13;95.82
20350;BME280;10332;50.208;18.988;2023-02-13T01:27:03;99950.69;;;5.10;96.52
20350;BME280;10332;50.208;18.988;2023-02-13T01:29:30;99941.19;;;5.11;96.09
20350;BME280;10332;50.208;18.988;2023-02-13T01:31:58;99943.06;;;5.03;96.89
20350;BME280;10332;50.208;18.988;2023-02-13T01:34:25;99939.75;;;4.95;97.59
20350;BME280;10332;50.208;18.988;2023-02-13T01:36:52;99940.50;;;5.01;97.72
20350;BME280;10332;50.208;18.988;2023-02-13T01:39:20;99938.81;;;4.99;97.73
20350;BME280;10332;50.208;18.988;2023-02-13T01:41:47;99931.03;;;4.99;97.74
20350;BME280;10332;50.208;18.988;2023-02-13T01:44:51;99939.59;;;5.04;97.83
20350;BME280;10332;50.208;18.988;2023-02-13T01:47:41;99929.44;;;4.92;98.17
20350;BME280;10332;50.208;18.988;2023-02-13T01:53:37;99928.53;;;4.96;98.81
20350;BME280;10332;50.208;18.988;2023-02-13T01:56:22;99925.19;;;4.88;99.22
20350;BME280;10332;50.208;18.988;2023-02-13T01:58:56;99924.25;;;4.92;99.59
20350;BME280;10332;50.208;18.988;2023-02-13T02:01:26;99920.59;;;5.05;99.12
20350;BME280;10332;50.208;18.988;2023-02-13T02:06:34;99922.47;;;4.97;99.72
20350;BME280;10332;50.208;18.988;2023-02-13T02:09:10;99918.06;;;5.00;99.69
20350;BME280;10332;50.208;18.988;2023-02-13T02:12:10;99919.06;;;4.92;100.00
20350;BME280;10332;50.208;18.988;2023-02-13T02:14:40;99915.53;;;4.99;100.00
20350;BME280;10332;50.208;18.988;2023-02-13T02:17:10;99915.53;;;4.99;100.00
20350;BME280;10332;50.208;18.988;2023-02-13T02:28:56;99907.03;;;4.91;100.00
20350;BME280;10332;50.208;18.988;2023-02-13T02:37:38;99898.34;;;4.95;100.00
20350;BME280;10332;50.208;18.988;2023-02-13T02:40:27;99902.59;;;4.97;100.00
20350;BME280;10332;50.208;18.988;2023-02-13T02:46:32;99906.97;;;4.94;100.00
20350;BME280;10332;50.208;18.988;2023-02-13T02:49:13;99909.53;;;4.94;100.00
20350;BME280;10332;50.208;18.988;2023-02-13T02:52:18;99906.16;;;4.90;100.00
20350;BME280;10332;50.208;18.988;2023-02-13T02:54:57;99905.38;;;4.85;100.00
20350;BME280;10332;50.208;18.988;2023-02-13T02:57:41;99914.78;;;4.91;100.00
20350;BME280;10332;50.208;18.988;2023-02-13T03:00:33;99918.28;;;4.88;100.00
20350;BME280;10332;50.208;18.988;2023-02-13T03:03:22;99914.03;;;4.82;100.00
20350;BME280;10332;50.208;18.988;2023-02-13T03:06:24;99908.00;;;4.82;100.00
20350;BME280;10332;50.208;18.988;2023-02-13T03:09:01;99912.41;;;4.78;100.00
20350;BME280;10332;50.208;18.988;2023-02-13T03:11:53;99912.19;;;4.91;100.00
20350;BME280;10332;50.208;18.988;2023-02-13T03:14:41;99908.84;;;4.86;100.00
20350;BME280;10332;50.208;18.988;2023-02-13T03:17:15;99912.28;;;4.84;100.00
20350;BME280;10332;50.208;18.988;2023-02-13T03:29:03;99915.56;;;4.96;100.00
20350;BME280;10332;50.208;18.988;2023-02-13T03:35:00;99911.13;;;5.02;100.00
20350;BME280;10332;50.208;18.988;2023-02-13T03:37:54;99913.72;;;5.04;100.00
20350;BME280;10332;50.208;18.988;2023-02-13T03:43:37;99909.75;;;4.81;100.00
20350;BME280;10332;50.208;18.988;2023-02-13T03:46:09;99902.91;;;4.79;100.00
20350;BME280;10332;50.208;18.988;2023-02-13T03:48:40;99899.44;;;4.80;100.00
20350;BME280;10332;50.208;18.988;2023-02-13T03:51:44;99913.91;;;4.92;100.00
20350;BME280;10332;50.208;18.988;2023-02-13T03:57:19;99913.94;;;4.90;100.00
20350;BME280;10332;50.208;18.988;2023-02-13T04:00:12;99913.91;;;4.92;100.00
20350;BME280;10332;50.208;18.988;2023-02-13T04:03:00;99917.38;;;4.91;100.00
20350;BME280;10332;50.208;18.988;2023-02-13T04:05:40;99912.28;;;4.86;100.00
20350;BME280;10332;50.208;18.988;2023-02-13T04:08:10;99916.38;;;4.99;100.00
20350;BME280;10332;50.208;18.988;2023-02-13T04:10:52;99906.13;;;4.92;100.00
20350;BME280;10332;50.208;18.988;2023-02-13T04:13:33;99914.78;;;4.91;100.00
20350;BME280;10332;50.208;18.988;2023-02-13T04:16:38;99912.41;;;4.75;100.00
20350;BME280;10332;50.208;18.988;2023-02-13T04:19:08;99919.34;;;4.76;100.00
20350;BME280;10332;50.208;18.988;2023-02-13T04:21:39;99909.94;;;4.69;100.00
20350;BME280;10332;50.208;18.988;2023-02-13T04:24:08;99915.16;;;4.66;100.00
20350;BME280;10332;50.208;18.988;2023-02-13T04:26:39;99918.44;;;4.76;100.00
20350;BME280;10332;50.208;18.988;2023-02-13T04:29:08;99914.97;;;4.78;100.00
20350;BME280;10332;50.208;18.988;2023-02-13T04:31:35;99918.44;;;4.79;100.00
20350;BME280;10332;50.208;18.988;2023-02-13T04:34:03;99910.53;;;4.87;100.00
20350;BME280;10332;50.208;18.988;2023-02-13T04:36:31;99907.38;;;4.69;100.00
20350;BME280;10332;50.208;18.988;2023-02-13T04:38:58;99910.53;;;4.88;100.00
20350;BME280;10332;50.208;18.988;2023-02-13T04:41:26;99902.63;;;4.94;100.00
20350;BME280;10332;50.208;18.988;2023-02-13T04:43:53;99899.31;;;4.88;100.00
20350;BME280;10332;50.208;18.988;2023-02-13T04:46:21;99902.63;;;4.96;100.00
20350;BME280;10332;50.208;18.988;2023-02-13T04:48:48;99902.63;;;4.94;100.00
20350;BME280;10332;50.208;18.988;2023-02-13T04:51:16;99907.72;;;5.00;100.00
20350;BME280;10332;50.208;18.988;2023-02-13T04:53:43;99912.00;;;5.03;100.00
20350;BME280;10332;50.208;18.988;2023-02-13T04:56:11;99914.72;;;4.95;100.00
20350;BME280;10332;50.208;18.988;2023-02-13T04:58:39;99916.59;;;4.86;100.00
20350;BME280;10332;50.208;18.988;2023-02-13T05:01:15;99919.06;;;4.95;100.00
20350;BME280;10332;50.208;18.988;2023-02-13T05:03:43;99909.53;;;4.95;100.00
20350;BME280;10332;50.208;18.988;2023-02-13T05:06:10;99912.75;;;5.09;100.00
20350;BME280;10332;50.208;18.988;2023-02-13T05:08:39;99911.13;;;5.04;100.00
20350;BME280;10332;50.208;18.988;2023-02-13T05:11:06;99908.41;;;5.10;100.00
20350;BME280;10332;50.208;18.988;2023-02-13T05:13:34;99920.47;;;5.11;100.00
20350;BME280;10332;50.208;18.988;2023-02-13T05:16:01;99909.41;;;5.04;100.00
20350;BME280;10332;50.208;18.988;2023-02-13T05:18:29;99904.94;;;5.11;100.00
20350;BME280;10332;50.208;18.988;2023-02-13T05:20:56;99904.06;;;5.12;100.00
20350;BME280;10332;50.208;18.988;2023-02-13T05:23:43;99905.78;;;5.15;100.00
20350;BME280;10332;50.208;18.988;2023-02-13T05:26:10;99909.97;;;5.20;100.00
20350;BME280;10332;50.208;18.988;2023-02-13T05:28:38;99910.91;;;5.16;100.00
20350;BME280;10332;50.208;18.988;2023-02-13T05:31:24;99906.56;;;5.18;100.00
20350;BME280;10332;50.208;18.988;2023-02-13T05:33:51;99910.09;;;5.14;100.00
20350;BME280;10332;50.208;18.988;2023-02-13T05:36:19;99911.78;;;5.17;100.00
20350;BME280;10332;50.208;18.988;2023-02-13T05:38:46;99911.84;;;5.12;100.00
20350;BME280;10332;50.208;18.988;2023-02-13T05:41:14;99907.53;;;5.11;100.00
20350;BME280;10332;50.208;18.988;2023-02-13T05:43:41;99907.47;;;5.16;100.00
20350;BME280;10332;50.208;18.988;2023-02-13T05:46:09;99899.78;;;5.11;100.00
20350;BME280;10332;50.208;18.988;2023-02-13T05:48:37;99905.78;;;5.15;100.00
20350;BME280;10332;50.208;18.988;2023-02-13T05:51:04;99907.41;;;5.19;100.00
20350;BME280;10332;50.208;18.988;2023-02-13T05:53:33;99904.75;;;5.23;100.00
20350;BME280;10332;50.208;18.988;2023-02-13T05:56:05;99910.66;;;5.30;100.00
20350;BME280;10332;50.208;18.988;2023-02-13T05:58:33;99902.00;;;5.32;100.00
20350;BME280;10332;50.208;18.988;2023-02-13T06:01:01;99906.28;;;5.35;100.00
20350;BME280;10332;50.208;18.988;2023-02-13T06:03:30;99899.44;;;5.32;100.00
20350;BME280;10332;50.208;18.988;2023-02-13T06:05:59;99897.59;;;5.37;100.00
20350;BME280;10332;50.208;18.988;2023-02-13T06:08:27;99904.47;;;5.38;100.00
20350;BME280;10332;50.208;18.988;2023-02-13T06:10:54;99912.97;;;5.47;100.00
20350;BME280;10332;50.208;18.988;2023-02-13T06:13:22;99913.91;;;5.43;100.00
20350;BME280;10332;50.208;18.988;2023-02-13T06:15:49;99918.06;;;5.51;100.00
20350;BME280;10332;50.208;18.988;2023-02-13T06:18:17;99919.81;;;5.51;100.00
20350;BME280;10332;50.208;18.988;2023-02-13T06:20:44;99921.38;;;5.59;100.00
20350;BME280;10332;50.208;18.988;2023-02-13T06:23:12;99925.59;;;5.66;100.00
20350;BME280;10332;50.208;18.988;2023-02-13T06:25:40;99926.38;;;5.70;100.00
20350;BME280;10332;50.208;18.988;2023-02-13T06:28:08;99926.19;;;5.79;100.00
20350;BME280;10332;50.208;18.988;2023-02-13T06:30:35;99924.41;;;5.81;100.00
20350;BME280;10332;50.208;18.988;2023-02-13T06:33:03;99926.13;;;5.82;100.00
20350;BME280;10332;50.208;18.988;2023-02-13T06:35:30;99930.53;;;5.79;100.00
20350;BME280;10332;50.208;18.988;2023-02-13T06:37:59;99929.56;;;5.84;100.00
20350;BME280;10332;50.208;18.988;2023-02-13T06:40:27;99925.41;;;5.74;100.00
20350;BME280;10332;50.208;18.988;2023-02-13T06:42:54;99928.84;;;5.76;100.00
20350;BME280;10332;50.208;18.988;2023-02-13T06:45:21;99929.66;;;5.78;99.92
20350;BME280;10332;50.208;18.988;2023-02-13T06:47:49;99936.22;;;5.97;99.74
20350;BME280;10332;50.208;18.988;2023-02-13T06:50:17;99935.97;;;6.11;99.36
20350;BME280;10332;50.208;18.988;2023-02-13T06:52:48;99933.84;;;6.29;98.82
20350;BME280;10332;50.208;18.988;2023-02-13T06:55:16;99930.16;;;6.40;98.03
20350;BME280;10332;50.208;18.988;2023-02-13T06:57:44;99935.88;;;6.56;97.30
20350;BME280;10332;50.208;18.988;2023-02-13T07:00:14;99939.13;;;6.64;97.24
20350;BME280;10332;50.208;18.988;2023-02-13T07:02:45;99939.41;;;6.91;96.64
20350;BME280;10332;50.208;18.988;2023-02-13T07:05:13;99935.47;;;7.11;95.15
20350;BME280;10332;50.208;18.988;2023-02-13T07:07:41;99941.22;;;7.23;93.94
20350;BME280;10332;50.208;18.988;2023-02-13T07:10:12;99941.09;;;7.27;93.57
20350;BME280;10332;50.208;18.988;2023-02-13T07:12:40;99944.44;;;7.32;93.39
20350;BME280;10332;50.208;18.988;2023-02-13T07:15:08;99939.34;;;7.29;92.65
20350;BME280;10332;50.208;18.988;2023-02-13T07:17:35;99947.25;;;7.25;90.82
20350;BME280;10332;50.208;18.988;2023-02-13T07:20:05;99946.63;;;7.15;91.13
20350;BME280;10332;50.208;18.988;2023-02-13T07:22:33;99942.63;;;7.00;91.21
20350;BME280;10332;50.208;18.988;2023-02-13T07:25:01;99932.06;;;7.08;91.22
20350;BME280;10332;50.208;18.988;2023-02-13T07:27:28;99937.78;;;7.22;90.65
20350;BME280;10332;50.208;18.988;2023-02-13T07:29:56;99942.13;;;7.56;89.76
20350;BME280;10332;50.208;18.988;2023-02-13T07:32:24;99945.81;;;7.80;89.06
20350;BME280;10332;50.208;18.988;2023-02-13T07:34:52;99938.56;;;7.92;88.06
20350;BME280;10332;50.208;18.988;2023-02-13T07:37:31;99941.84;;;8.29;86.64
20350;BME280;10332;50.208;18.988;2023-02-13T07:39:59;99940.19;;;8.85;84.87
20350;BME280;10332;50.208;18.988;2023-02-13T07:42:27;99935.09;;;9.08;83.55
20350;BME280;10332;50.208;18.988;2023-02-13T07:44:54;99938.63;;;9.32;83.19
20350;BME280;10332;50.208;18.988;2023-02-13T07:47:21;99939.78;;;9.75;82.64
20350;BME280;10332;50.208;18.988;2023-02-13T07:49:49;99939.09;;;9.70;80.35
20350;BME280;10332;50.208;18.988;2023-02-13T07:52:16;99937.28;;;9.21;79.77
20350;BME280;10332;50.208;18.988;2023-02-13T07:54:44;99940.25;;;9.10;80.02
20350;BME280;10332;50.208;18.988;2023-02-13T07:57:15;99943.47;;;9.18;79.99
20350;BME280;10332;50.208;18.988;2023-02-13T07:59:42;99934.69;;;9.47;79.84
20350;BME280;10332;50.208;18.988;2023-02-13T08:02:13;99934.19;;;9.86;77.28
20350;BME280;10332;50.208;18.988;2023-02-13T08:04:41;99938.31;;;10.16;76.68
20350;BME280;10332;50.208;18.988;2023-02-13T08:07:14;99936.38;;;10.21;76.39
20350;BME280;10332;50.208;18.988;2023-02-13T08:09:45;99930.91;;;10.29;75.88
20350;BME280;10332;50.208;18.988;2023-02-13T08:12:34;99931.59;;;10.34;75.22
20350;BME280;10332;50.208;18.988;2023-02-13T08:15:03;99931.75;;;10.53;75.28
20350;BME280;10332;50.208;18.988;2023-02-13T08:17:31;99929.94;;;10.32;76.10
20350;BME280;10332;50.208;18.988;2023-02-13T08:19:58;99942.06;;;10.33;76.33
20350;BME280;10332;50.208;18.988;2023-02-13T08:22:26;99935.06;;;10.10;76.55
20350;BME280;10332;50.208;18.988;2023-02-13T08:24:53;99936.53;;;9.68;77.75
20350;BME280;10332;50.208;18.988;2023-02-13T08:27:21;99943.41;;;9.46;79.08
20350;BME280;10332;50.208;18.988;2023-02-13T08:29:49;99940.94;;;9.42;80.23
20350;BME280;10332;50.208;18.988;2023-02-13T08:32:17;99935.94;;;9.35;80.34
20350;BME280;10332;50.208;18.988;2023-02-13T08:34:45;99932.03;;;9.22;81.39
20350;BME280;10332;50.208;18.988;2023-02-13T08:37:13;99942.00;;;9.09;82.18
20350;BME280;10332;50.208;18.988;2023-02-13T08:39:41;99941.06;;;9.12;81.73
20350;BME280;10332;50.208;18.988;2023-02-13T08:42:09;99951.03;;;8.99;82.42
20350;BME280;10332;50.208;18.988;2023-02-13T08:44:42;99949.16;;;9.03;81.97
20350;BME280;10332;50.208;18.988;2023-02-13T08:47:10;99946.91;;;8.92;82.64
20350;BME280;10332;50.208;18.988;2023-02-13T08:49:37;99945.66;;;9.04;82.81
20350;BME280;10332;50.208;18.988;2023-02-13T08:52:05;99946.25;;;8.86;83.39
20350;BME280;10332;50.208;18.988;2023-02-13T08:54:34;99941.97;;;8.83;83.68
20350;BME280;10332;50.208;18.988;2023-02-13T08:57:03;99943.81;;;8.79;83.74
20350;BME280;10332;50.208;18.988;2023-02-13T08:59:30;99940.47;;;8.76;83.98
20350;BME280;10332;50.208;18.988;2023-02-13T09:01:58;99931.31;;;8.91;84.34
20350;BME280;10332;50.208;18.988;2023-02-13T09:04:25;99936.53;;;8.91;83.93
20350;BME280;10332;50.208;18.988;2023-02-13T09:06:53;99931.78;;;9.03;83.38
20350;BME280;10332;50.208;18.988;2023-02-13T09:09:21;99931.34;;;9.17;83.21
20350;BME280;10332;50.208;18.988;2023-02-13T09:11:48;99949.59;;;9.16;82.87
20350;BME280;10332;50.208;18.988;2023-02-13T09:14:17;99939.03;;;8.94;83.93
20350;BME280;10332;50.208;18.988;2023-02-13T09:16:45;99942.22;;;8.75;85.22
20350;BME280;10332;50.208;18.988;2023-02-13T09:19:12;99930.28;;;8.68;86.02
20350;BME280;10332;50.208;18.988;2023-02-13T09:21:40;99934.00;;;8.60;86.45
20350;BME280;10332;50.208;18.988;2023-02-13T09:24:09;99939.50;;;8.50;86.68
20350;BME280;10332;50.208;18.988;2023-02-13T09:26:37;99943.47;;;8.33;88.19
20350;BME280;10332;50.208;18.988;2023-02-13T09:29:05;99946.03;;;8.36;88.36
20350;BME280;10332;50.208;18.988;2023-02-13T09:31:32;99948.28;;;8.15;89.33
20350;BME280;10332;50.208;18.988;2023-02-13T09:34:00;99941.13;;;8.23;89.49
20350;BME280;10332;50.208;18.988;2023-02-13T09:36:28;99945.22;;;8.32;89.24
20350;BME280;10332;50.208;18.988;2023-02-13T09:38:56;99948.22;;;8.49;88.85
20350;BME280;10332;50.208;18.988;2023-02-13T09:41:34;99948.78;;;8.59;88.14
20350;BME280;10332;50.208;18.988;2023-02-13T09:44:15;99946.97;;;8.89;87.32
20350;BME280;10332;50.208;18.988;2023-02-13T09:47:06;99938.81;;;9.28;86.40
20350;BME280;10332;50.208;18.988;2023-02-13T09:49:43;99936.88;;;9.33;85.84
20350;BME280;10332;50.208;18.988;2023-02-13T09:52:13;99934.63;;;9.22;85.80
20350;BME280;10332;50.208;18.988;2023-02-13T09:54:41;99934.25;;;9.08;86.65
20350;BME280;10332;50.208;18.988;2023-02-13T09:57:33;99935.94;;;8.82;87.60
20350;BME280;10332;50.208;18.988;2023-02-13T10:00:29;99934.91;;;8.87;87.89
20350;BME280;10332;50.208;18.988;2023-02-13T10:03:18;99937.41;;;8.63;88.55
20350;BME280;10332;50.208;18.988;2023-02-13T10:18:00;99926.81;;;8.40;90.02
20350;BME280;10332;50.208;18.988;2023-02-13T10:20:49;99928.06;;;8.56;90.03
20350;BME280;10332;50.208;18.988;2023-02-13T10:23:58;99918.34;;;8.32;90.53
20350;BME280;10332;50.208;18.988;2023-02-13T10:26:36;99910.06;;;8.17;91.57
20350;BME280;10332;50.208;18.988;2023-02-13T10:29:20;99914.53;;;8.14;91.82
20350;BME280;10332;50.208;18.988;2023-02-13T10:32:14;99925.84;;;7.82;92.37
20350;BME280;10332;50.208;18.988;2023-02-13T10:34:45;99905.53;;;7.94;92.94
20350;BME280;10332;50.208;18.988;2023-02-13T10:37:18;99902.84;;;7.97;93.56
20350;BME280;10332;50.208;18.988;2023-02-13T10:39:51;99902.78;;;8.01;92.35
20350;BME280;10332;50.208;18.988;2023-02-13T10:51:01;99880.47;;;8.21;92.06
20350;BME280;10332;50.208;18.988;2023-02-13T11:02:08;99866.78;;;7.54;94.51
20350;BME280;10332;50.208;18.988;2023-02-13T11:04:43;99871.97;;;7.54;94.77
20350;BME280;10332;50.208;18.988;2023-02-13T11:07:17;99866.78;;;7.54;94.41
20350;BME280;10332;50.208;18.988;2023-02-13T11:09:49;99867.63;;;7.56;94.75
20350;BME280;10332;50.208;18.988;2023-02-13T11:12:31;99874.72;;;7.50;95.04
20350;BME280;10332;50.208;18.988;2023-02-13T11:15:04;99871.31;;;7.48;95.32
20350;BME280;10332;50.208;18.988;2023-02-13T11:17:38;99866.16;;;7.45;95.84
20350;BME280;10332;50.208;18.988;2023-02-13T11:20:26;99865.50;;;7.38;96.08
20350;BME280;10332;50.208;18.988;2023-02-13T11:22:56;99859.72;;;7.59;96.27
20350;BME280;10332;50.208;18.988;2023-02-13T11:25:38;99853.56;;;7.62;95.95
20350;BME280;10332;50.208;18.988;2023-02-13T11:28:18;99851.50;;;7.75;95.62
20350;BME280;10332;50.208;18.988;2023-02-13T11:30:47;99856.97;;;7.95;94.39
20350;BME280;10332;50.208;18.988;2023-02-13T11:35:45;99848.88;;;8.34;93.75
20350;BME280;10332;50.208;18.988;2023-02-13T11:38:22;99842.94;;;8.58;92.02
20350;BME280;10332;50.208;18.988;2023-02-13T11:41:24;99839.72;;;8.50;91.43
20350;BME280;10332;50.208;18.988;2023-02-13T11:44:02;99833.84;;;8.45;92.48
20350;BME280;10332;50.208;18.988;2023-02-13T11:46:48;99830.50;;;8.40;92.73
20350;BME280;10332;50.208;18.988;2023-02-13T11:49:22;99827.66;;;8.47;92.65
20350;BME280;10332;50.208;18.988;2023-02-13T11:51:54;99830.03;;;8.27;93.26
20350;BME280;10332;50.208;18.988;2023-02-13T11:56:59;99825.56;;;8.31;93.41
20350;BME280;10332;50.208;18.988;2023-02-13T11:59:40;99820.00;;;8.13;94.28
20350;BME280;10332;50.208;18.988;2023-02-13T12:05:22;99825.56;;;8.31;94.21
20350;BME280;10332;50.208;18.988;2023-02-13T12:07:59;99819.16;;;8.13;95.29
20350;BME280;10332;50.208;18.988;2023-02-13T12:10:30;99827.38;;;7.99;95.40
20350;BME280;10332;50.208;18.988;2023-02-13T12:13:28;99822.63;;;7.84;96.92
20350;BME280;10332;50.208;18.988;2023-02-13T12:16:43;99819.25;;;7.82;97.02
20350;BME280;10332;50.208;18.988;2023-02-13T12:25:30;99814.38;;;7.69;98.33
20350;BME280;10332;50.208;18.988;2023-02-13T12:39:33;99824.59;;;7.46;100.00
20350;BME280;10332;50.208;18.988;2023-02-13T12:42:29;99817.84;;;7.39;100.00
20350;BME280;10332;50.208;18.988;2023-02-13T12:45:42;99811.66;;;7.43;100.00
20350;BME280;10332;50.208;18.988;2023-02-13T12:51:27;99814.34;;;7.07;100.00
20350;BME280;10332;50.208;18.988;2023-02-13T12:54:14;99810.69;;;7.15;100.00
20350;BME280;10332;50.208;18.988;2023-02-13T12:57:02;99799.59;;;7.08;100.00
20350;BME280;10332;50.208;18.988;2023-02-13T13:21:48;99809.03;;;7.12;100.00
20350;BME280;10332;50.208;18.988;2023-02-13T13:24:49;99809.94;;;7.09;100.00
20350;BME280;10332;50.208;18.988;2023-02-13T13:27:29;99807.16;;;7.17;100.00
20350;BME280;10332;50.208;18.988;2023-02-13T13:30:27;99813.09;;;7.22;100.00
20350;BME280;10332;50.208;18.988;2023-02-13T13:41:51;99803.31;;;7.32;100.00
20350;BME280;10332;50.208;18.988;2023-02-13T13:50:29;99820.63;;;7.62;100.00
20350;BME280;10332;50.208;18.988;2023-02-13T13:58:37;99805.59;;;7.43;100.00
20350;BME280;10332;50.208;18.988;2023-02-13T14:01:29;99815.66;;;7.55;100.00
20350;BME280;10332;50.208;18.988;2023-02-13T14:04:36;99813.84;;;7.58;100.00
20350;BME280;10332;50.208;18.988;2023-02-13T14:07:15;99819.66;;;7.66;100.00
20350;BME280;10332;50.208;18.988;2023-02-13T14:09:48;99811.72;;;7.71;100.00
20350;BME280;10332;50.208;18.988;2023-02-13T14:14:54;99804.34;;;7.87;100.00
20350;BME280;10332;50.208;18.988;2023-02-13T14:20:29;99787.31;;;7.77;100.00
20350;BME280;10332;50.208;18.988;2023-02-13T14:31:30;99812.50;;;7.75;98.69
20350;BME280;10332;50.208;18.988;2023-02-13T14:34:01;99803.06;;;7.71;97.24
20350;BME280;10332;50.208;18.988;2023-02-13T14:36:40;99803.34;;;7.61;96.01
20350;BME280;10332;50.208;18.988;2023-02-13T14:39:25;99805.09;;;7.61;95.26
20350;BME280;10332;50.208;18.988;2023-02-13T14:44:31;99813.41;;;7.72;96.04
20350;BME280;10332;50.208;18.988;2023-02-13T14:47:05;99795.38;;;7.67;93.88
20350;BME280;10332;50.208;18.988;2023-02-13T14:49:42;99792.59;;;7.74;93.74
20350;BME280;10332;50.208;18.988;2023-02-13T14:52:18;99798.59;;;7.76;92.96
20350;BME280;10332;50.208;18.988;2023-02-13T14:55:06;99798.19;;;7.60;92.07
20350;BME280;10332;50.208;18.988;2023-02-13T14:57:51;99800.69;;;7.64;92.29
20350;BME280;10332;50.208;18.988;2023-02-13T15:00:56;99791.78;;;7.72;92.11
20350;BME280;10332;50.208;18.988;2023-02-13T15:03:48;99787.41;;;7.74;92.21
20350;BME280;10332;50.208;18.988;2023-02-13T15:06:27;99786.41;;;7.78;92.33
20350;BME280;10332;50.208;18.988;2023-02-13T15:09:03;99793.84;;;7.90;92.52
20350;BME280;10332;50.208;18.988;2023-02-13T15:11:42;99789.75;;;7.83;91.87
20350;BME280;10332;50.208;18.988;2023-02-13T15:14:35;99793.25;;;7.51;92.26
20350;BME280;10332;50.208;18.988;2023-02-13T15:17:24;99787.56;;;7.38;93.00
20350;BME280;10332;50.208;18.988;2023-02-13T15:20:02;99788.38;;;7.40;93.89
20350;BME280;10332;50.208;18.988;2023-02-13T15:22:41;99778.97;;;7.34;93.37
20350;BME280;10332;50.208;18.988;2023-02-13T15:25:38;99781.94;;;7.22;93.54
20350;BME280;10332;50.208;18.988;2023-02-13T15:28:17;99780.19;;;7.23;93.86
20350;BME280;10332;50.208;18.988;2023-02-13T15:31:02;99783.13;;;7.10;94.28
20350;BME280;10332;50.208;18.988;2023-02-13T15:33:48;99781.53;;;7.05;95.20
20350;BME280;10332;50.208;18.988;2023-02-13T15:36:25;99773.31;;;6.88;96.35
20350;BME280;10332;50.208;18.988;2023-02-13T15:39:00;99769.78;;;6.90;96.81
20350;BME280;10332;50.208;18.988;2023-02-13T15:41:42;99766.63;;;6.79;97.41
20350;BME280;10332;50.208;18.988;2023-02-13T15:44:19;99768.75;;;6.63;96.30
20350;BME280;10332;50.208;18.988;2023-02-13T15:46:50;99776.75;;;6.54;96.23
20350;BME280;10332;50.208;18.988;2023-02-13T15:49:23;99785.38;;;6.56;95.44
20350;BME280;10332;50.208;18.988;2023-02-13T15:52:12;99792.38;;;6.52;95.76
20350;BME280;10332;50.208;18.988;2023-02-13T15:54:52;99782.13;;;6.48;95.50
20350;BME280;10332;50.208;18.988;2023-02-13T15:57:21;99779.66;;;6.42;96.03
20350;BME280;10332;50.208;18.988;2023-02-13T15:59:52;99780.50;;;6.42;96.29
20350;BME280;10332;50.208;18.988;2023-02-13T16:02:30;99784.19;;;6.34;96.54
20350;BME280;10332;50.208;18.988;2023-02-13T16:05:01;99780.69;;;6.35;96.75
20350;BME280;10332;50.208;18.988;2023-02-13T16:07:29;99786.72;;;6.35;96.65
20350;BME280;10332;50.208;18.988;2023-02-13T16:10:24;99787.53;;;6.37;96.94
20350;BME280;10332;50.208;18.988;2023-02-13T16:12:53;99795.94;;;6.48;96.73
20350;BME280;10332;50.208;18.988;2023-02-13T16:15:27;99800.25;;;6.49;96.19